createdAt,value
2018-02-08T00:00:31.083Z,0.1
2018-02-08T00:05:31.060Z,0.2
2018-02-08T00:10:30.904Z,0.2
2018-02-08T00:15:31.041Z,0.2
2018-02-08T00:20:31.112Z,0.1
2018-02-08T00:25:31.148Z,0.2
2018-02-08T00:30:30.898Z,0.1
2018-02-08T00:35:30.925Z,0.1
2018-02-08T00:40:31.149Z,0.2
2018-02-08T00:45:31.178Z,0.1
2018-02-08T00:50:31.208Z,0.1
2018-02-08T00:55:31.453Z,0.1
2018-02-08T01:00:31.321Z,0.1
2018-02-08T01:05:31.526Z,0.1
2018-02-08T01:10:31.335Z,0
2018-02-08T01:15:31.473Z,0
2018-02-08T01:20:31.320Z,0
2018-02-08T01:25:31.337Z,0
2018-02-08T01:30:31.459Z,0.1
2018-02-08T01:35:31.500Z,0.1
2018-02-08T01:40:31.344Z,0.1
2018-02-08T01:45:31.473Z,0.1
2018-02-08T01:50:31.504Z,0.1
2018-02-08T01:55:31.332Z,0
2018-02-08T02:00:31.463Z,0.1
2018-02-08T02:05:31.507Z,0
2018-02-08T02:10:31.555Z,0
2018-02-08T02:15:31.572Z,0
2018-02-08T02:20:31.305Z,0.1
2018-02-08T02:25:31.541Z,0.1
2018-02-08T02:30:31.575Z,0.1
2018-02-08T02:35:31.498Z,0.1
2018-02-08T02:40:31.515Z,0.1
2018-02-08T02:45:31.559Z,0.1
2018-02-08T02:50:31.793Z,0.1
2018-02-08T02:55:31.621Z,0.1
2018-02-08T03:00:31.616Z,0.1
2018-02-08T03:05:33.005Z,0.1
2018-02-08T03:10:38.226Z,0.1
2018-02-08T03:15:33.293Z,0.1
2018-02-08T03:20:33.236Z,0.1
2018-02-08T03:25:33.265Z,0.1
2018-02-08T03:30:33.137Z,0.1
2018-02-08T03:35:33.343Z,0.1
2018-02-08T03:40:33.232Z,0.1
2018-02-08T03:45:33.291Z,0.1
2018-02-08T03:50:33.137Z,0.1
2018-02-08T03:55:33.368Z,0.1
2018-02-08T04:00:33.141Z,0.1
2018-02-08T04:05:33.155Z,0.1
2018-02-08T04:10:33.375Z,0.1
2018-02-08T04:15:33.393Z,0.1
2018-02-08T04:20:33.307Z,0.1
2018-02-08T04:25:33.189Z,0.1
2018-02-08T04:30:33.398Z,0.1
2018-02-08T04:35:33.331Z,0.1
2018-02-08T04:40:33.348Z,0.1
2018-02-08T04:45:33.197Z,0.1
2018-02-08T04:50:33.197Z,0.1
2018-02-08T04:55:33.205Z,0.1
2018-02-08T05:00:33.215Z,0.1
2018-02-08T05:05:33.466Z,0.1
2018-02-08T05:10:33.465Z,0.1
2018-02-08T05:15:33.460Z,0.1
2018-02-08T05:20:33.455Z,0.2
2018-02-08T05:25:33.461Z,0.2
2018-02-08T05:30:33.464Z,0.2
2018-02-08T05:35:33.483Z,0.2
2018-02-08T05:40:33.495Z,0.2
2018-02-08T05:45:33.701Z,0.2
2018-02-08T05:50:33.622Z,0.2
2018-02-08T05:55:33.496Z,0.2
2018-02-08T06:00:33.707Z,0.2
2018-02-08T06:05:33.499Z,0.2
2018-02-08T06:10:33.662Z,0.2
2018-02-08T06:15:33.814Z,0.2
2018-02-08T06:20:33.843Z,0.2
2018-02-08T06:25:33.778Z,0.2
2018-02-08T06:30:33.767Z,0.2
2018-02-08T06:35:33.618Z,0.3
2018-02-08T06:40:33.619Z,0.3
2018-02-08T06:45:33.799Z,0.3
2018-02-08T06:50:33.840Z,0.3
2018-02-08T06:55:33.908Z,0.3
2018-02-08T07:00:33.789Z,0.3
2018-02-08T07:05:33.695Z,0.4
2018-02-08T07:10:33.622Z,0.4
2018-02-08T07:15:33.791Z,0.4
2018-02-08T07:20:33.831Z,0.4
2018-02-08T07:25:33.640Z,0.5
2018-02-08T07:30:33.793Z,0.5
2018-02-08T07:35:33.645Z,0.5
2018-02-08T07:40:33.874Z,0.6
2018-02-08T07:45:33.790Z,0.6
2018-02-08T07:50:33.654Z,0.6
2018-02-08T07:55:37.988Z,0.7
2018-02-08T08:00:43.062Z,0.7
2018-02-08T08:05:38.125Z,0.7
2018-02-08T08:10:38.173Z,0.8
2018-02-08T08:15:38.098Z,0.9
2018-02-08T08:20:38.122Z,0.9
2018-02-08T08:25:38.136Z,1
2018-02-08T08:30:38.165Z,0.9
2018-02-08T08:35:37.932Z,1.1
2018-02-08T08:40:38.148Z,1.1
2018-02-08T08:45:38.201Z,1.1
2018-02-08T08:50:38.117Z,1.2
2018-02-08T08:55:38.134Z,1.1
2018-02-08T09:00:39.204Z,1.3
2018-02-08T09:05:38.142Z,1.4
2018-02-08T09:10:38.142Z,1.5
2018-02-08T09:15:38.169Z,1.7
2018-02-08T09:20:38.157Z,1.6
2018-02-08T09:25:38.110Z,1.8
2018-02-08T09:30:38.187Z,1.8
2018-02-08T09:35:38.239Z,1.9
2018-02-08T09:40:38.149Z,1.6
2018-02-08T09:45:38.164Z,1.7
2018-02-08T09:50:38.190Z,1.8
2018-02-08T09:55:38.029Z,1.8
2018-02-08T10:00:38.174Z,1.9
2018-02-08T10:05:38.029Z,2
2018-02-08T10:10:38.256Z,1.9
2018-02-08T10:15:38.288Z,2.1
2018-02-08T10:20:38.327Z,2.2
2018-02-08T10:25:38.097Z,2.3
2018-02-08T10:30:38.208Z,2.1
2018-02-08T10:35:38.322Z,2.4
2018-02-08T10:40:38.209Z,2.3
2018-02-08T10:45:38.098Z,2.4
2018-02-08T10:50:38.640Z,2.4
2018-02-08T10:55:38.227Z,2.4
2018-02-08T11:00:38.294Z,2.6
2018-02-08T11:05:38.182Z,2.5
2018-02-08T11:10:38.350Z,2.5
2018-02-08T11:15:38.247Z,2.4
2018-02-08T11:20:38.305Z,2.6
2018-02-08T11:25:38.237Z,2.5
2018-02-08T11:30:38.273Z,2.5
2018-02-08T11:35:38.080Z,2.5
2018-02-08T11:40:38.363Z,2.6
2018-02-08T11:45:38.274Z,2.8
2018-02-08T11:50:38.138Z,3
2018-02-08T11:55:38.142Z,2.7
2018-02-08T12:00:38.377Z,3
2018-02-08T12:05:38.305Z,3.1
2018-02-08T12:10:38.385Z,2.8
2018-02-08T12:15:38.389Z,2.9
2018-02-08T12:20:38.337Z,3.1
2018-02-08T12:25:38.269Z,3.2
2018-02-08T12:30:38.377Z,3.1
2018-02-08T12:35:38.297Z,2.7
2018-02-08T12:40:38.356Z,2.8
2018-02-08T12:45:38.122Z,2.5
2018-02-08T12:50:43.002Z,2.5
2018-02-08T12:55:48.247Z,2.7
2018-02-08T13:00:43.011Z,2.5
2018-02-08T13:05:43.211Z,2.9
2018-02-08T13:10:43.014Z,3
2018-02-08T13:15:43.212Z,2.6
2018-02-08T13:20:43.234Z,2.9
2018-02-08T13:25:43.169Z,3
2018-02-08T13:30:43.009Z,2.8
2018-02-08T13:35:44.231Z,2.7
2018-02-08T13:40:43.266Z,2.5
2018-02-08T13:45:43.200Z,2.6
2018-02-08T13:50:43.226Z,2.5
2018-02-08T13:55:43.246Z,2.7
2018-02-08T14:00:43.181Z,2.8
2018-02-08T14:05:43.149Z,2.7
2018-02-08T14:10:43.297Z,2.8
2018-02-08T14:15:43.055Z,2.7
2018-02-08T14:20:43.420Z,2.7
2018-02-08T14:25:43.298Z,2.6
2018-02-08T14:30:43.492Z,2.7
2018-02-08T14:35:43.421Z,2.5
2018-02-08T14:40:43.446Z,2.5
2018-02-08T14:45:43.468Z,2.6
2018-02-08T14:50:43.519Z,2.5
2018-02-08T14:55:43.442Z,2.6
2018-02-08T15:00:43.491Z,2.4
2018-02-08T15:05:43.520Z,2.4
2018-02-08T15:10:43.444Z,2.4
2018-02-08T15:15:43.459Z,2.4
2018-02-08T15:20:43.566Z,2.3
2018-02-08T15:25:43.380Z,2.1
2018-02-08T15:30:43.338Z,2
2018-02-08T15:35:43.335Z,2
2018-02-08T15:40:43.362Z,2
2018-02-08T15:45:43.341Z,2
2018-02-08T15:50:43.305Z,1.9
2018-02-08T15:55:43.358Z,1.9
2018-02-08T16:00:43.529Z,1.8
2018-02-08T16:05:43.527Z,1.8
2018-02-08T16:10:43.530Z,1.8
2018-02-08T16:15:43.551Z,1.7
2018-02-08T16:20:43.511Z,1.6
2018-02-08T16:25:43.558Z,1.5
2018-02-08T16:30:43.540Z,1.4
2018-02-08T16:35:43.538Z,1.4
2018-02-08T16:40:43.590Z,1.4
2018-02-08T16:45:43.495Z,1.4
2018-02-08T16:50:43.554Z,1.3
2018-02-08T16:55:43.568Z,1.3
2018-02-08T17:00:43.583Z,1.3
2018-02-08T17:05:43.588Z,1.2
2018-02-08T17:10:43.520Z,1.2
2018-02-08T17:15:43.537Z,1.2
2018-02-08T17:20:43.706Z,1.2
2018-02-08T17:25:43.707Z,1.2
2018-02-08T17:30:43.724Z,1.2
2018-02-08T17:35:43.711Z,1.2
2018-02-08T17:40:43.725Z,1.2
2018-02-08T17:45:46.671Z,1.2
2018-02-08T17:50:51.756Z,1.2
2018-02-08T17:55:46.619Z,1.1
2018-02-08T18:00:46.667Z,1.1
2018-02-08T18:05:46.660Z,1.1
2018-02-08T18:10:46.659Z,1.1
2018-02-08T18:15:46.876Z,1.1
2018-02-08T18:20:46.698Z,1
2018-02-08T18:25:46.820Z,1
2018-02-08T18:30:46.684Z,1
2018-02-08T18:35:46.677Z,1
2018-02-08T18:40:46.685Z,1
2018-02-08T18:45:46.662Z,1
2018-02-08T18:50:46.697Z,1
2018-02-08T18:55:46.699Z,0.9
2018-02-08T19:00:46.715Z,1
2018-02-08T19:05:46.719Z,1
2018-02-08T19:10:46.733Z,1
2018-02-08T19:15:46.695Z,1
2018-02-08T19:20:46.712Z,1
2018-02-08T19:25:46.922Z,1
2018-02-08T19:30:46.703Z,1
2018-02-08T19:35:46.703Z,0.9
2018-02-08T19:40:46.739Z,0.8
2018-02-08T19:45:46.894Z,0.8
2018-02-08T19:50:47.086Z,0.9
2018-02-08T19:55:47.039Z,0.8
2018-02-08T20:00:46.936Z,0.9
2018-02-08T20:05:46.938Z,0.8
2018-02-08T20:10:47.135Z,0.8
2018-02-08T20:15:46.943Z,0.8
2018-02-08T20:20:47.083Z,0.8
2018-02-08T20:25:46.942Z,0.8
2018-02-08T20:30:46.949Z,0.7
2018-02-08T20:35:47.093Z,0.7
2018-02-08T20:40:47.121Z,0.7
2018-02-08T20:45:46.951Z,0.7
2018-02-08T20:50:47.078Z,0.7
2018-02-08T20:55:47.117Z,0.6
2018-02-08T21:00:47.074Z,0.6
2018-02-08T21:05:47.080Z,0.6
2018-02-08T21:10:47.121Z,0.6
2018-02-08T21:15:46.981Z,0.6
2018-02-08T21:20:47.088Z,0.6
2018-02-08T21:25:46.973Z,0.6
2018-02-08T21:30:47.128Z,0.6
2018-02-08T21:35:47.130Z,0.6
2018-02-08T21:40:47.121Z,0.6
2018-02-08T21:45:47.132Z,0.6
2018-02-08T21:50:47.074Z,0.6
2018-02-08T21:55:47.128Z,0.6
2018-02-08T22:00:47.120Z,0.5
2018-02-08T22:05:47.141Z,0.6
2018-02-08T22:10:48.435Z,0.5
2018-02-08T22:15:47.370Z,0.5
2018-02-08T22:20:47.165Z,0.5
2018-02-08T22:25:47.266Z,0.4
2018-02-08T22:30:47.152Z,0.4
2018-02-08T22:35:47.148Z,0.4
2018-02-08T22:40:47.152Z,0.3
2018-02-08T22:45:51.691Z,0.3
2018-02-08T22:50:56.808Z,0.3
2018-02-08T22:55:51.726Z,0.3
2018-02-08T23:00:51.733Z,0.3
2018-02-08T23:05:51.888Z,0.3
2018-02-08T23:10:51.726Z,0.3
2018-02-08T23:15:51.749Z,0.3
2018-02-08T23:20:51.713Z,0.3
2018-02-08T23:25:51.756Z,0.3
2018-02-08T23:30:51.748Z,0.3
2018-02-08T23:35:51.885Z,0.3
2018-02-08T23:40:52.023Z,0.3
2018-02-08T23:45:51.848Z,0.3
2018-02-08T23:50:52.196Z,0.3
2018-02-08T23:55:52.006Z,0.2
